sensor_id;sensor_type;location;lat;lon;timestamp;pressure;altitude;pressure_sealevel;temperature;humidity
56825;BME280;42705;50.326;18.772;2023-04-08T00:05:11;98601.12;;;3.98;75.20
56825;BME280;42705;50.326;18.772;2023-04-08T00:10:33;98600.52;;;4.02;74.97
56825;BME280;42705;50.326;18.772;2023-04-08T00:15:55;98605.95;;;4.01;75.11
56825;BME280;42705;50.326;18.772;2023-04-08T00:21:18;98612.40;;;3.97;75.03
56825;BME280;42705;50.326;18.772;2023-04-08T00:26:41;98624.85;;;3.94;74.88
56825;BME280;42705;50.326;18.772;2023-04-08T00:32:03;98625.83;;;3.95;74.77
56825;BME280;42705;50.326;18.772;2023-04-08T00:37:25;98629.16;;;3.97;75.00
56825;BME280;42705;50.326;18.772;2023-04-08T00:42:47;98633.21;;;4.01;74.83
56825;BME280;42705;50.326;18.772;2023-04-08T00:48:09;98640.60;;;3.99;74.46
56825;BME280;42705;50.326;18.772;2023-04-08T00:53:31;98642.27;;;3.97;74.62
56825;BME280;42705;50.326;18.772;2023-04-08T00:58:53;98643.42;;;3.98;74.80
56825;BME280;42705;50.326;18.772;2023-04-08T01:04:36;98642.89;;;4.01;74.47
56825;BME280;42705;50.326;18.772;2023-04-08T01:10:25;98644.08;;;4.02;74.28
56825;BME280;42705;50.326;18.772;2023-04-08T01:15:48;98648.84;;;4.06;74.37
56825;BME280;42705;50.326;18.772;2023-04-08T01:21:11;98655.71;;;4.07;73.99
56825;BME280;42705;50.326;18.772;2023-04-08T01:26:36;98663.63;;;4.04;73.85
56825;BME280;42705;50.326;18.772;2023-04-08T01:31:59;98660.80;;;4.02;73.92
56825;BME280;42705;50.326;18.772;2023-04-08T01:37:24;98660.67;;;4.02;73.79
56825;BME280;42705;50.326;18.772;2023-04-08T01:42:51;98662.89;;;3.96;73.66
56825;BME280;42705;50.326;18.772;2023-04-08T01:48:14;98665.30;;;3.85;73.57
56825;BME280;42705;50.326;18.772;2023-04-08T01:53:37;98671.63;;;3.81;73.50
56825;BME280;42705;50.326;18.772;2023-04-08T01:58:59;98669.14;;;3.79;73.46
56825;BME280;42705;50.326;18.772;2023-04-08T02:04:22;98672.70;;;3.74;73.22
56825;BME280;42705;50.326;18.772;2023-04-08T02:09:43;98671.48;;;3.65;73.14
56825;BME280;42705;50.326;18.772;2023-04-08T02:15:07;98673.40;;;3.62;73.10
56825;BME280;42705;50.326;18.772;2023-04-08T02:20:35;98677.06;;;3.61;72.64
56825;BME280;42705;50.326;18.772;2023-04-08T02:25:59;98680.38;;;3.55;72.55
56825;BME280;42705;50.326;18.772;2023-04-08T02:31:23;98685.06;;;3.39;72.10
56825;BME280;42705;50.326;18.772;2023-04-08T02:36:50;98685.27;;;3.27;72.22
56825;BME280;42705;50.326;18.772;2023-04-08T02:42:12;98687.16;;;3.21;72.24
56825;BME280;42705;50.326;18.772;2023-04-08T02:47:34;98689.20;;;3.24;72.22
56825;BME280;42705;50.326;18.772;2023-04-08T02:52:56;98690.71;;;3.28;72.16
56825;BME280;42705;50.326;18.772;2023-04-08T02:58:18;98695.09;;;3.21;72.12
56825;BME280;42705;50.326;18.772;2023-04-08T03:03:40;98695.02;;;3.16;72.30
56825;BME280;42705;50.326;18.772;2023-04-08T03:09:02;98701.52;;;3.10;72.03
56825;BME280;42705;50.326;18.772;2023-04-08T03:14:23;98699.14;;;3.10;71.73
56825;BME280;42705;50.326;18.772;2023-04-08T03:19:45;98700.54;;;3.07;71.75
56825;BME280;42705;50.326;18.772;2023-04-08T03:25:08;98698.63;;;2.98;71.75
56825;BME280;42705;50.326;18.772;2023-04-08T03:30:30;98703.47;;;2.88;71.89
56825;BME280;42705;50.326;18.772;2023-04-08T03:35:53;98706.13;;;2.84;71.89
56825;BME280;42705;50.326;18.772;2023-04-08T03:41:15;98710.75;;;2.81;71.90
56825;BME280;42705;50.326;18.772;2023-04-08T03:46:37;98717.81;;;2.78;71.73
56825;BME280;42705;50.326;18.772;2023-04-08T03:52:00;98718.06;;;2.70;71.53
56825;BME280;42705;50.326;18.772;2023-04-08T03:57:22;98720.30;;;2.64;71.79
56825;BME280;42705;50.326;18.772;2023-04-08T04:02:44;98730.89;;;2.56;71.69
56825;BME280;42705;50.326;18.772;2023-04-08T04:08:06;98732.86;;;2.48;71.75
56825;BME280;42705;50.326;18.772;2023-04-08T04:13:28;98740.48;;;2.41;72.00
56825;BME280;42705;50.326;18.772;2023-04-08T04:18:51;98749.04;;;2.36;71.88
56825;BME280;42705;50.326;18.772;2023-04-08T04:24:13;98761.54;;;2.40;71.66
56825;BME280;42705;50.326;18.772;2023-04-08T04:29:35;98768.33;;;2.49;71.86
56825;BME280;42705;50.326;18.772;2023-04-08T04:34:56;98767.88;;;2.48;71.73
56825;BME280;42705;50.326;18.772;2023-04-08T04:40:18;98771.20;;;2.47;71.61
56825;BME280;42705;50.326;18.772;2023-04-08T04:45:40;98773.55;;;2.58;71.86
56825;BME280;42705;50.326;18.772;2023-04-08T04:51:02;98774.92;;;2.68;71.81
56825;BME280;42705;50.326;18.772;2023-04-08T04:56:24;98779.68;;;2.69;71.86
56825;BME280;42705;50.326;18.772;2023-04-08T05:01:47;98782.23;;;2.67;71.56
56825;BME280;42705;50.326;18.772;2023-04-08T05:07:09;98790.79;;;2.68;71.46
56825;BME280;42705;50.326;18.772;2023-04-08T05:12:31;98799.12;;;2.70;71.50
56825;BME280;42705;50.326;18.772;2023-04-08T05:17:53;98802.13;;;2.75;71.52
56825;BME280;42705;50.326;18.772;2023-04-08T05:23:15;98808.45;;;2.80;71.39
56825;BME280;42705;50.326;18.772;2023-04-08T05:28:37;98812.02;;;3.01;71.77
56825;BME280;42705;50.326;18.772;2023-04-08T05:33:59;98814.92;;;3.26;72.36
56825;BME280;42705;50.326;18.772;2023-04-08T05:39:20;98821.86;;;3.51;72.09
56825;BME280;42705;50.326;18.772;2023-04-08T05:44:42;98820.67;;;3.69;71.82
56825;BME280;42705;50.326;18.772;2023-04-08T05:50:05;98829.95;;;3.83;71.44
56825;BME280;42705;50.326;18.772;2023-04-08T05:55:27;98833.65;;;3.96;71.31
56825;BME280;42705;50.326;18.772;2023-04-08T06:00:49;98836.88;;;4.12;70.99
56825;BME280;42705;50.326;18.772;2023-04-08T06:06:11;98838.23;;;4.22;70.76
56825;BME280;42705;50.326;18.772;2023-04-08T06:11:33;98839.73;;;4.23;70.48
56825;BME280;42705;50.326;18.772;2023-04-08T06:16:55;98846.53;;;4.31;70.32
56825;BME280;42705;50.326;18.772;2023-04-08T06:22:17;98849.10;;;4.40;70.30
56825;BME280;42705;50.326;18.772;2023-04-08T06:27:39;98855.27;;;4.53;70.09
56825;BME280;42705;50.326;18.772;2023-04-08T06:33:01;98860.36;;;4.66;70.19
56825;BME280;42705;50.326;18.772;2023-04-08T06:38:23;98863.42;;;4.73;69.65
56825;BME280;42705;50.326;18.772;2023-04-08T06:43:44;98870.80;;;4.65;69.31
56825;BME280;42705;50.326;18.772;2023-04-08T06:49:06;98874.20;;;4.58;69.14
56825;BME280;42705;50.326;18.772;2023-04-08T06:54:28;98878.06;;;4.59;69.16
56825;BME280;42705;50.326;18.772;2023-04-08T06:59:50;98878.64;;;4.73;68.97
56825;BME280;42705;50.326;18.772;2023-04-08T07:05:13;98885.33;;;4.83;68.81
56825;BME280;42705;50.326;18.772;2023-04-08T07:10:35;98888.55;;;4.87;68.44
56825;BME280;42705;50.326;18.772;2023-04-08T07:15:57;98888.38;;;4.93;68.27
56825;BME280;42705;50.326;18.772;2023-04-08T07:21:18;98890.67;;;5.01;68.01
56825;BME280;42705;50.326;18.772;2023-04-08T07:26:40;98900.16;;;5.07;68.00
56825;BME280;42705;50.326;18.772;2023-04-08T07:32:02;98903.86;;;5.11;67.57
56825;BME280;42705;50.326;18.772;2023-04-08T07:37:25;98906.20;;;5.19;67.53
56825;BME280;42705;50.326;18.772;2023-04-08T07:42:47;98913.92;;;5.26;67.39
56825;BME280;42705;50.326;18.772;2023-04-08T07:48:09;98916.86;;;5.31;67.07
56825;BME280;42705;50.326;18.772;2023-04-08T07:53:32;98922.66;;;5.33;66.92
56825;BME280;42705;50.326;18.772;2023-04-08T07:58:54;98926.37;;;5.34;66.58
56825;BME280;42705;50.326;18.772;2023-04-08T08:04:17;98924.81;;;5.45;66.58
56825;BME280;42705;50.326;18.772;2023-04-08T08:09:38;98930.75;;;5.56;66.23
56825;BME280;42705;50.326;18.772;2023-04-08T08:15:02;98932.64;;;5.67;66.25
56825;BME280;42705;50.326;18.772;2023-04-08T08:20:24;98929.23;;;5.86;66.27
56825;BME280;42705;50.326;18.772;2023-04-08T08:25:47;98931.92;;;5.98;65.65
56825;BME280;42705;50.326;18.772;2023-04-08T08:31:09;98931.77;;;6.06;65.39
56825;BME280;42705;50.326;18.772;2023-04-08T08:36:31;98937.65;;;6.12;65.24
56825;BME280;42705;50.326;18.772;2023-04-08T08:41:52;98941.19;;;6.16;65.17
56825;BME280;42705;50.326;18.772;2023-04-08T08:47:18;98938.73;;;6.25;64.90
56825;BME280;42705;50.326;18.772;2023-04-08T08:52:47;98944.86;;;6.37;64.52
56825;BME280;42705;50.326;18.772;2023-04-08T08:58:09;98949.06;;;6.56;64.26
56825;BME280;42705;50.326;18.772;2023-04-08T09:03:31;98953.18;;;6.69;63.98
56825;BME280;42705;50.326;18.772;2023-04-08T09:08:53;98959.42;;;6.80;64.03
56825;BME280;42705;50.326;18.772;2023-04-08T09:14:23;98968.08;;;6.93;63.70
56825;BME280;42705;50.326;18.772;2023-04-08T09:25:31;98983.63;;;7.07;63.14
56825;BME280;42705;50.326;18.772;2023-04-08T09:30:53;98984.66;;;7.20;63.18
56825;BME280;42705;50.326;18.772;2023-04-08T09:36:17;98990.46;;;7.30;62.46
56825;BME280;42705;50.326;18.772;2023-04-08T09:41:40;98993.79;;;7.37;62.22
56825;BME280;42705;50.326;18.772;2023-04-08T09:47:18;98992.30;;;7.53;62.23
56825;BME280;42705;50.326;18.772;2023-04-08T09:52:45;98986.35;;;7.74;62.30
56825;BME280;42705;50.326;18.772;2023-04-08T09:58:15;98987.98;;;7.93;61.93
56825;BME280;42705;50.326;18.772;2023-04-08T10:03:49;98984.02;;;8.07;61.54
56825;BME280;42705;50.326;18.772;2023-04-08T10:09:13;98986.25;;;8.18;61.08
56825;BME280;42705;50.326;18.772;2023-04-08T10:14:35;98984.08;;;8.23;60.94
56825;BME280;42705;50.326;18.772;2023-04-08T10:19:57;98990.06;;;8.34;60.15
56825;BME280;42705;50.326;18.772;2023-04-08T10:31:01;98994.14;;;8.40;59.17
56825;BME280;42705;50.326;18.772;2023-04-08T10:36:23;98999.84;;;8.58;58.92
56825;BME280;42705;50.326;18.772;2023-04-08T10:41:48;98991.58;;;8.71;58.74
56825;BME280;42705;50.326;18.772;2023-04-08T10:47:10;98990.63;;;8.88;58.56
56825;BME280;42705;50.326;18.772;2023-04-08T10:52:33;98980.45;;;9.21;58.21
56825;BME280;42705;50.326;18.772;2023-04-08T10:57:55;98988.20;;;9.64;58.08
56825;BME280;42705;50.326;18.772;2023-04-08T11:03:26;98988.35;;;10.04;57.49
56825;BME280;42705;50.326;18.772;2023-04-08T11:08:48;98982.44;;;10.39;57.21
56825;BME280;42705;50.326;18.772;2023-04-08T11:14:11;98981.09;;;10.62;57.03
56825;BME280;42705;50.326;18.772;2023-04-08T11:19:34;98984.23;;;10.79;56.29
56825;BME280;42705;50.326;18.772;2023-04-08T11:24:56;98985.76;;;10.97;55.08
56825;BME280;42705;50.326;18.772;2023-04-08T11:30:19;98986.71;;;11.04;54.08
56825;BME280;42705;50.326;18.772;2023-04-08T11:35:42;98988.96;;;10.97;53.97
56825;BME280;42705;50.326;18.772;2023-04-08T11:41:04;98993.11;;;10.98;53.80
56825;BME280;42705;50.326;18.772;2023-04-08T11:46:26;98992.55;;;10.93;53.50
56825;BME280;42705;50.326;18.772;2023-04-08T11:51:56;98992.26;;;10.82;53.18
56825;BME280;42705;50.326;18.772;2023-04-08T11:57:27;98991.07;;;10.64;53.37
56825;BME280;42705;50.326;18.772;2023-04-08T12:02:50;98996.80;;;10.45;53.18
56825;BME280;42705;50.326;18.772;2023-04-08T12:08:13;98995.48;;;10.33;53.13
56825;BME280;42705;50.326;18.772;2023-04-08T12:13:35;98991.63;;;10.31;52.63
56825;BME280;42705;50.326;18.772;2023-04-08T12:18:56;98992.91;;;10.30;52.59
56825;BME280;42705;50.326;18.772;2023-04-08T12:24:18;98994.61;;;10.31;52.76
56825;BME280;42705;50.326;18.772;2023-04-08T12:29:40;98993.83;;;10.12;52.64
56825;BME280;42705;50.326;18.772;2023-04-08T12:35:03;98995.83;;;9.94;52.93
56825;BME280;42705;50.326;18.772;2023-04-08T12:40:25;99000.94;;;9.79;53.51
56825;BME280;42705;50.326;18.772;2023-04-08T12:45:47;98999.24;;;9.63;53.31
56825;BME280;42705;50.326;18.772;2023-04-08T12:51:09;99001.73;;;9.56;53.61
56825;BME280;42705;50.326;18.772;2023-04-08T12:56:32;98993.34;;;9.56;54.09
56825;BME280;42705;50.326;18.772;2023-04-08T13:01:54;98994.48;;;9.52;54.27
56825;BME280;42705;50.326;18.772;2023-04-08T13:07:16;98998.14;;;9.50;54.84
56825;BME280;42705;50.326;18.772;2023-04-08T13:12:38;99000.73;;;9.44;55.02
56825;BME280;42705;50.326;18.772;2023-04-08T13:18:00;99004.99;;;9.36;55.33
56825;BME280;42705;50.326;18.772;2023-04-08T13:23:22;99007.19;;;9.28;55.55
56825;BME280;42705;50.326;18.772;2023-04-08T13:28:44;99006.46;;;9.17;55.65
56825;BME280;42705;50.326;18.772;2023-04-08T13:34:07;99001.48;;;9.04;56.13
56825;BME280;42705;50.326;18.772;2023-04-08T13:39:29;99004.49;;;8.89;56.31
56825;BME280;42705;50.326;18.772;2023-04-08T13:44:50;99007.23;;;8.81;56.56
56825;BME280;42705;50.326;18.772;2023-04-08T13:50:12;99014.88;;;8.74;57.07
56825;BME280;42705;50.326;18.772;2023-04-08T13:55:35;99016.94;;;8.69;57.11
56825;BME280;42705;50.326;18.772;2023-04-08T14:00:56;99016.49;;;8.64;57.65
56825;BME280;42705;50.326;18.772;2023-04-08T14:06:18;99016.63;;;8.52;58.02
56825;BME280;42705;50.326;18.772;2023-04-08T14:11:40;99015.67;;;8.44;58.20
56825;BME280;42705;50.326;18.772;2023-04-08T14:17:02;99009.98;;;8.36;58.89
56825;BME280;42705;50.326;18.772;2023-04-08T14:22:24;99011.98;;;8.25;58.77
56825;BME280;42705;50.326;18.772;2023-04-08T14:27:49;99010.80;;;8.17;59.04
56825;BME280;42705;50.326;18.772;2023-04-08T14:33:10;99014.77;;;8.18;59.64
56825;BME280;42705;50.326;18.772;2023-04-08T14:38:34;99015.23;;;8.25;59.97
56825;BME280;42705;50.326;18.772;2023-04-08T14:43:56;99014.53;;;8.30;59.98
56825;BME280;42705;50.326;18.772;2023-04-08T14:49:18;99013.89;;;8.39;60.12
56825;BME280;42705;50.326;18.772;2023-04-08T14:54:40;99014.37;;;8.47;59.97
56825;BME280;42705;50.326;18.772;2023-04-08T15:00:02;99010.79;;;8.61;60.38
56825;BME280;42705;50.326;18.772;2023-04-08T15:05:25;99013.09;;;8.70;60.62
56825;BME280;42705;50.326;18.772;2023-04-08T15:10:47;99010.50;;;8.88;60.19
56825;BME280;42705;50.326;18.772;2023-04-08T15:16:09;99004.31;;;9.17;59.96
56825;BME280;42705;50.326;18.772;2023-04-08T15:21:31;99006.02;;;9.25;59.79
56825;BME280;42705;50.326;18.772;2023-04-08T15:26:53;99014.80;;;9.24;59.70
56825;BME280;42705;50.326;18.772;2023-04-08T15:32:15;99015.24;;;9.18;59.92
56825;BME280;42705;50.326;18.772;2023-04-08T15:37:37;99019.75;;;9.05;60.02
56825;BME280;42705;50.326;18.772;2023-04-08T15:42:59;99019.59;;;8.95;60.42
56825;BME280;42705;50.326;18.772;2023-04-08T15:48:21;99022.11;;;8.94;60.38
56825;BME280;42705;50.326;18.772;2023-04-08T15:53:43;99024.02;;;8.89;60.33
56825;BME280;42705;50.326;18.772;2023-04-08T15:59:05;99032.34;;;8.83;60.13
56825;BME280;42705;50.326;18.772;2023-04-08T16:04:27;99033.95;;;8.82;60.44
56825;BME280;42705;50.326;18.772;2023-04-08T16:09:49;99033.23;;;8.85;60.48
56825;BME280;42705;50.326;18.772;2023-04-08T16:15:11;99032.09;;;8.88;60.71
56825;BME280;42705;50.326;18.772;2023-04-08T16:20:36;99035.70;;;8.92;60.97
56825;BME280;42705;50.326;18.772;2023-04-08T16:25:59;99037.23;;;8.92;60.94
56825;BME280;42705;50.326;18.772;2023-04-08T16:31:22;99043.32;;;8.90;61.00
56825;BME280;42705;50.326;18.772;2023-04-08T16:36:43;99039.08;;;8.86;60.91
56825;BME280;42705;50.326;18.772;2023-04-08T16:42:05;99047.14;;;8.73;60.77
56825;BME280;42705;50.326;18.772;2023-04-08T16:47:27;99046.49;;;8.63;60.77
56825;BME280;42705;50.326;18.772;2023-04-08T16:52:49;99050.54;;;8.55;61.11
56825;BME280;42705;50.326;18.772;2023-04-08T16:58:11;99056.96;;;8.51;61.19
56825;BME280;42705;50.326;18.772;2023-04-08T17:03:35;99057.77;;;8.46;61.06
56825;BME280;42705;50.326;18.772;2023-04-08T17:08:57;99062.36;;;8.48;61.11
56825;BME280;42705;50.326;18.772;2023-04-08T17:14:19;99066.66;;;8.49;61.36
56825;BME280;42705;50.326;18.772;2023-04-08T17:19:41;99075.19;;;8.41;61.39
56825;BME280;42705;50.326;18.772;2023-04-08T17:25:04;99077.17;;;8.33;61.33
56825;BME280;42705;50.326;18.772;2023-04-08T17:30:26;99086.19;;;8.23;61.58
56825;BME280;42705;50.326;18.772;2023-04-08T17:35:48;99085.00;;;8.20;61.79
56825;BME280;42705;50.326;18.772;2023-04-08T17:41:10;99091.48;;;8.15;61.70
56825;BME280;42705;50.326;18.772;2023-04-08T17:46:32;99096.81;;;8.13;61.88
56825;BME280;42705;50.326;18.772;2023-04-08T17:51:54;99100.50;;;8.08;62.17
56825;BME280;42705;50.326;18.772;2023-04-08T17:57:17;99103.08;;;8.01;62.27
56825;BME280;42705;50.326;18.772;2023-04-08T18:02:39;99104.91;;;7.95;62.45
56825;BME280;42705;50.326;18.772;2023-04-08T18:08:02;99108.51;;;7.88;62.34
56825;BME280;42705;50.326;18.772;2023-04-08T18:13:24;99113.27;;;7.80;62.50
56825;BME280;42705;50.326;18.772;2023-04-08T18:18:47;99117.93;;;7.75;62.89
56825;BME280;42705;50.326;18.772;2023-04-08T18:24:09;99126.85;;;7.69;63.27
56825;BME280;42705;50.326;18.772;2023-04-08T18:29:31;99123.23;;;7.63;63.54
56825;BME280;42705;50.326;18.772;2023-04-08T18:34:53;99124.66;;;7.55;63.50
56825;BME280;42705;50.326;18.772;2023-04-08T18:40:15;99128.91;;;7.51;63.85
56825;BME280;42705;50.326;18.772;2023-04-08T18:45:37;99131.70;;;7.51;63.60
56825;BME280;42705;50.326;18.772;2023-04-08T18:50:59;99136.81;;;7.47;64.06
56825;BME280;42705;50.326;18.772;2023-04-08T18:56:23;99139.73;;;7.40;64.29
56825;BME280;42705;50.326;18.772;2023-04-08T19:01:44;99143.45;;;7.34;64.46
56825;BME280;42705;50.326;18.772;2023-04-08T19:07:07;99149.44;;;7.32;64.61
56825;BME280;42705;50.326;18.772;2023-04-08T19:12:30;99142.98;;;7.33;65.12
56825;BME280;42705;50.326;18.772;2023-04-08T19:17:54;99148.70;;;7.33;65.10
56825;BME280;42705;50.326;18.772;2023-04-08T19:23:17;99151.16;;;7.33;65.29
56825;BME280;42705;50.326;18.772;2023-04-08T19:28:39;99148.41;;;7.27;65.45
56825;BME280;42705;50.326;18.772;2023-04-08T19:34:02;99148.08;;;7.27;65.64
56825;BME280;42705;50.326;18.772;2023-04-08T19:39:24;99144.60;;;7.27;65.93
56825;BME280;42705;50.326;18.772;2023-04-08T19:44:47;99147.14;;;7.25;65.98
56825;BME280;42705;50.326;18.772;2023-04-08T19:50:12;99149.52;;;7.18;66.15
56825;BME280;42705;50.326;18.772;2023-04-08T19:55:34;99143.96;;;7.23;66.67
56825;BME280;42705;50.326;18.772;2023-04-08T20:00:58;99150.33;;;7.27;66.51
56825;BME280;42705;50.326;18.772;2023-04-08T20:06:25;99143.80;;;7.28;66.46
56825;BME280;42705;50.326;18.772;2023-04-08T20:11:58;99133.82;;;7.30;66.70
56825;BME280;42705;50.326;18.772;2023-04-08T20:17:27;99130.88;;;7.34;66.80
56825;BME280;42705;50.326;18.772;2023-04-08T20:22:49;99132.46;;;7.34;67.04
56825;BME280;42705;50.326;18.772;2023-04-08T20:28:11;99133.59;;;7.28;66.96
56825;BME280;42705;50.326;18.772;2023-04-08T20:33:33;99139.38;;;7.21;67.06
56825;BME280;42705;50.326;18.772;2023-04-08T20:38:56;99130.92;;;7.23;67.49
56825;BME280;42705;50.326;18.772;2023-04-08T20:44:18;99129.64;;;7.24;67.47
56825;BME280;42705;50.326;18.772;2023-04-08T20:49:40;99132.69;;;7.23;67.63
56825;BME280;42705;50.326;18.772;2023-04-08T20:55:05;99136.59;;;7.22;67.71
56825;BME280;42705;50.326;18.772;2023-04-08T21:00:27;99135.65;;;7.28;67.91
56825;BME280;42705;50.326;18.772;2023-04-08T21:05:49;99134.91;;;7.39;68.05
56825;BME280;42705;50.326;18.772;2023-04-08T21:11:12;99139.34;;;7.43;68.00
56825;BME280;42705;50.326;18.772;2023-04-08T21:16:34;99144.15;;;7.42;68.08
56825;BME280;42705;50.326;18.772;2023-04-08T21:21:56;99141.83;;;7.47;68.21
56825;BME280;42705;50.326;18.772;2023-04-08T21:27:18;99143.88;;;7.56;68.30
56825;BME280;42705;50.326;18.772;2023-04-08T21:32:40;99158.13;;;7.59;68.31
56825;BME280;42705;50.326;18.772;2023-04-08T21:38:02;99167.70;;;7.56;68.33
56825;BME280;42705;50.326;18.772;2023-04-08T21:43:24;99169.91;;;7.54;68.11
56825;BME280;42705;50.326;18.772;2023-04-08T21:48:46;99168.94;;;7.50;68.25
56825;BME280;42705;50.326;18.772;2023-04-08T21:54:08;99164.64;;;7.44;68.46
56825;BME280;42705;50.326;18.772;2023-04-08T21:59:30;99164.63;;;7.39;68.70
56825;BME280;42705;50.326;18.772;2023-04-08T22:04:52;99166.02;;;7.36;68.69
56825;BME280;42705;50.326;18.772;2023-04-08T22:10:14;99165.11;;;7.34;69.10
56825;BME280;42705;50.326;18.772;2023-04-08T22:15:36;99184.33;;;7.35;69.12
56825;BME280;42705;50.326;18.772;2023-04-08T22:20:58;99190.83;;;7.34;69.30
56825;BME280;42705;50.326;18.772;2023-04-08T22:26:20;99181.99;;;7.36;69.37
56825;BME280;42705;50.326;18.772;2023-04-08T22:31:42;99182.26;;;7.38;69.32
56825;BME280;42705;50.326;18.772;2023-04-08T22:37:04;99189.77;;;7.37;69.44
56825;BME280;42705;50.326;18.772;2023-04-08T22:42:26;99184.06;;;7.37;69.45
56825;BME280;42705;50.326;18.772;2023-04-08T22:47:48;99181.77;;;7.29;69.29
56825;BME280;42705;50.326;18.772;2023-04-08T22:53:12;99175.56;;;7.13;69.12
56825;BME280;42705;50.326;18.772;2023-04-08T22:58:35;99164.28;;;6.96;68.83
56825;BME280;42705;50.326;18.772;2023-04-08T23:03:57;99152.98;;;6.83;68.68
56825;BME280;42705;50.326;18.772;2023-04-08T23:09:19;99152.41;;;6.78;68.67
56825;BME280;42705;50.326;18.772;2023-04-08T23:14:43;99148.86;;;6.79;68.71
56825;BME280;42705;50.326;18.772;2023-04-08T23:20:06;99146.27;;;6.79;68.58
56825;BME280;42705;50.326;18.772;2023-04-08T23:25:28;99143.96;;;6.75;68.55
56825;BME280;42705;50.326;18.772;2023-04-08T23:30:50;99137.34;;;6.75;68.59
56825;BME280;42705;50.326;18.772;2023-04-08T23:36:12;99142.33;;;6.73;68.68
56825;BME280;42705;50.326;18.772;2023-04-08T23:41:33;99149.29;;;6.64;68.66
56825;BME280;42705;50.326;18.772;2023-04-08T23:46:55;99158.45;;;6.51;68.73
56825;BME280;42705;50.326;18.772;2023-04-08T23:52:17;99163.52;;;6.45;68.82
56825;BME280;42705;50.326;18.772;2023-04-08T23:57:42;99159.23;;;6.50;69.39
